DW5678 Kavala GR current weather conditions

sailwx.info

Wind from 225 at 0 knots gusting 4

Air temperature 30.6° C
Dewpoint 16.2° C

Last reported at 2015-Aug-04 10:45 UTC.
Time now 2015-Aug-04 11:44 UTC

Location: N 40°56' E 024°24'.
View on Google Maps.

See reports from other nearby stations

  
Tides and Currents Weather Stations Pressure Air Temp Water Temp Dewpoint Dewpoint Depression Visibility Wind Speed Wind Dir Waves Ship Positions
date/time (UTC)wind fromknots sea level pressurealtimeterstation pressurevisibilityair tempwater tempwave heightnotes
2015-Aug-04 10:45 225 0 gusting 4 30.6
2015-Aug-04 10:30 224 1 gusting 5 30.0
2015-Aug-04 10:15 238 0 gusting 2 30.6
2015-Aug-04 10:00 229 1 gusting 4 30.0
2015-Aug-04 09:45 200 1 gusting 5 30.6
2015-Aug-04 09:30 096 0 gusting 4 30.6
2015-Aug-04 09:15 120 1 gusting 4 30.0
2015-Aug-04 09:00 153 0 gusting 5 30.0
2015-Aug-04 08:45 140 1 gusting 2 29.4
2015-Aug-04 08:30 152 1 gusting 2 29.4
2015-Aug-04 08:15 180 0 gusting 4 29.4
2015-Aug-04 08:00 204 0 gusting 4 28.9
2015-Aug-04 07:45 122 1 gusting 2 28.3
2015-Aug-04 07:30 123 0 gusting 2 28.9
2015-Aug-04 07:15 157 0 gusting 2 28.3
2015-Aug-04 07:00 121 27.8
2015-Aug-04 06:45 206 0 gusting 4 27.8
2015-Aug-04 06:30 236 0 gusting 2 27.2
2015-Aug-04 06:15 171 27.2
2015-Aug-04 06:00 155 26.7
2015-Aug-04 05:45 064 0 gusting 1 27.2
2015-Aug-04 05:30 053 27.2
2015-Aug-04 05:15 028 26.7
2015-Aug-04 05:00 021 26.1
2015-Aug-04 04:45 352 0 gusting 6 25.6
2015-Aug-04 04:30 048 0 gusting 4 25.0
2015-Aug-04 04:15 227 23.9
2015-Aug-04 04:00 227 0 gusting 1 24.4
2015-Aug-04 03:45 223 24.4
2015-Aug-04 03:30 222 24.4
2015-Aug-04 03:15 101 24.4
2015-Aug-04 03:00 101 24.4
2015-Aug-04 02:45 101 24.4
2015-Aug-04 02:30 101 24.4
2015-Aug-04 02:15 101 24.4
2015-Aug-04 02:00 101 24.4
2015-Aug-04 01:45 101 25.0
2015-Aug-04 01:30 101 25.0
2015-Aug-04 01:15 101 25.0
2015-Aug-04 01:00 133 25.6
2015-Aug-04 00:45 133 25.6
2015-Aug-04 00:30 133 26.1
2015-Aug-04 00:15 133 26.1
2015-Aug-04 00:00 178 26.7
2015-Aug-03 23:45 129 26.1
2015-Aug-03 23:30 128 26.1
2015-Aug-03 23:15 128 26.7
2015-Aug-03 23:00 128 26.7
2015-Aug-03 22:45 128 26.7
2015-Aug-03 22:30 128 27.2
2015-Aug-03 22:15 26.7
2015-Aug-03 22:00 009 27.2
2015-Aug-03 21:45 005 27.8
2015-Aug-03 21:30 005 27.8
2015-Aug-03 21:15 009 27.8
2015-Aug-03 21:00 038 28.9
2015-Aug-03 20:45 321 3 gusting 10 28.3
2015-Aug-03 20:30 333 0 gusting 7 29.4
2015-Aug-03 20:15 334 2 gusting 6 28.9
2015-Aug-03 20:00 351 2 gusting 10 28.9
2015-Aug-03 19:45 344 0 gusting 4 28.3
2015-Aug-03 19:30 233 27.8
2015-Aug-03 19:15 233 27.8
2015-Aug-03 19:00 233 27.2
2015-Aug-03 18:45 233 27.2
2015-Aug-03 18:30 233 27.2
2015-Aug-03 18:15 159 27.8
2015-Aug-03 18:00 159 27.8
2015-Aug-03 17:45 159 27.8
2015-Aug-03 17:30 159 27.8
2015-Aug-03 17:15 159 27.8
2015-Aug-03 17:00 159 27.8
2015-Aug-03 16:45 191 0 gusting 2 28.3
2015-Aug-03 16:30 153 28.3
2015-Aug-03 16:15 211 28.3
2015-Aug-03 16:00 155 28.9
2015-Aug-03 15:45 207 0 gusting 2 28.9
2015-Aug-03 15:30 166 0 gusting 2 29.4
2015-Aug-03 15:15 190 0 gusting 2 28.9
2015-Aug-03 15:00 117 0 gusting 4 29.4
2015-Aug-03 14:45 204 0 gusting 4 28.9
2015-Aug-03 14:30 144 0 gusting 4 29.4
2015-Aug-03 14:15 205 0 gusting 4 29.4
2015-Aug-03 14:00 206 1 gusting 4 29.4
2015-Aug-03 13:45 213 0 gusting 4 28.3
2015-Aug-03 13:30 217 0 gusting 5 28.9
2015-Aug-03 13:15 205 1 gusting 6 29.4
2015-Aug-03 13:00 173 0 gusting 6 28.9
2015-Aug-03 12:45 182 2 gusting 6 28.9
2015-Aug-03 12:30 187 2 gusting 5 29.4
2015-Aug-03 12:15 180 1 gusting 6 29.4
2015-Aug-03 12:00 128 2 gusting 6 28.9
2015-Aug-03 11:45 190 1 gusting 4 28.9
2015-Aug-03 11:30 151 1 gusting 5 28.9
2015-Aug-03 11:15 182 1 gusting 6 30.0
2015-Aug-03 11:00 188 1 gusting 4 28.9
2015-Aug-03 10:45 139 2 gusting 6 28.9
2015-Aug-03 10:30 170 0 gusting 6 28.9
2015-Aug-03 10:15 166 1 gusting 6 29.4
2015-Aug-03 10:00 185 1 gusting 5 29.4
2015-Aug-03 09:45 197 0 gusting 2 28.9
2015-Aug-03 09:30 160 1 gusting 6 28.9
2015-Aug-03 09:15 197 0 gusting 4 28.9
2015-Aug-03 09:00 146 1 gusting 6 28.9
2015-Aug-03 08:45 148 1 gusting 5 28.9
2015-Aug-03 08:30 174 0 gusting 2 27.8
2015-Aug-03 08:15 146 0 gusting 4 28.3
2015-Aug-03 08:00 209 1 gusting 4 27.8
2015-Aug-03 07:45 200 0 gusting 6 28.3
2015-Aug-03 07:30 189 1 gusting 4 28.9
2015-Aug-03 07:15 228 2 gusting 6 28.9
2015-Aug-03 07:00 234 28.9
2015-Aug-03 06:45 216 0 gusting 4 27.8
2015-Aug-03 06:30 233 0 gusting 2 27.8
2015-Aug-03 06:15 059 27.2
2015-Aug-03 06:00 168 0 gusting 2 27.2
2015-Aug-03 05:45 253 0 gusting 2 26.7
2015-Aug-03 05:30 166 26.1
2015-Aug-03 05:15 166 25.6
2015-Aug-03 05:00 176 26.1
2015-Aug-03 04:45 213 26.1
2015-Aug-03 04:30 187 0 gusting 4 26.1
2015-Aug-03 04:15 065 25.6
2015-Aug-03 04:00 100 0 gusting 2 25.6
2015-Aug-03 03:45 260 24.4
2015-Aug-03 03:30 041 24.4
2015-Aug-03 03:15 307 24.4
2015-Aug-03 03:00 307 23.9
2015-Aug-03 02:45 051 23.9
2015-Aug-03 02:30 051 23.9
2015-Aug-03 02:15 051 23.9
2015-Aug-03 02:00 051 24.4
2015-Aug-03 01:45 051 24.4
2015-Aug-03 01:30 051 24.4
2015-Aug-03 01:15 046 25.0
2015-Aug-03 01:00 046 25.6
2015-Aug-03 00:45 047 25.6
2015-Aug-03 00:30 037 25.0
2015-Aug-03 00:15 037 25.6
2015-Aug-03 00:00 037 25.6
2015-Aug-02 23:45 034 26.1
2015-Aug-02 23:30 048 26.1
2015-Aug-02 23:15 048 26.1
2015-Aug-02 23:00 048 26.7
2015-Aug-02 22:45 048 26.7
2015-Aug-02 22:30 007 1 gusting 4 26.7
2015-Aug-02 22:15 042 0 gusting 4 26.7
2015-Aug-02 22:00 072 0 gusting 4 26.7
2015-Aug-02 21:45 023 1 gusting 4 26.7
2015-Aug-02 21:30 032 1 gusting 5 27.2
2015-Aug-02 21:15 056 0 gusting 4 27.8
2015-Aug-02 21:00 043 2 gusting 8 28.9
2015-Aug-02 20:45 040 2 gusting 6 28.3
2015-Aug-02 20:30 019 0 gusting 6 28.3
2015-Aug-02 20:15 030 1 gusting 4 28.9
2015-Aug-02 20:00 005 1 gusting 5 28.9
2015-Aug-02 19:45 022 0 gusting 2 28.9
2015-Aug-02 19:30 009 28.3
2015-Aug-02 19:15 034 28.9
2015-Aug-02 19:00 035 28.9
2015-Aug-02 18:45 035 28.9
2015-Aug-02 18:30 032 28.9
2015-Aug-02 18:15 196 28.9
2015-Aug-02 18:00 196 28.9
2015-Aug-02 17:45 196 28.9
2015-Aug-02 17:30 196 28.9
2015-Aug-02 17:15 196 28.9
2015-Aug-02 17:00 192 0 gusting 1 29.4
2015-Aug-02 16:45 190 29.4
2015-Aug-02 16:30 190 29.4
2015-Aug-02 16:15 190 0 gusting 2 29.4
2015-Aug-02 16:00 172 30.0
2015-Aug-02 15:45 195 0 gusting 2 30.0
2015-Aug-02 15:30 116 0 gusting 2 29.4
2015-Aug-02 15:15 201 0 gusting 2 30.0
2015-Aug-02 15:00 219 1 gusting 2 30.0
2015-Aug-02 14:45 120 30.0
2015-Aug-02 14:30 166 1 gusting 4 29.4
2015-Aug-02 14:15 080 0 gusting 4 30.0
2015-Aug-02 14:00 107 0 gusting 5 29.4
2015-Aug-02 13:45 057 1 gusting 4 30.0
2015-Aug-02 13:30 135 0 gusting 6 29.4
2015-Aug-02 13:15 229 0 gusting 5 29.4
2015-Aug-02 13:00 169 0 gusting 6 29.4
2015-Aug-02 12:45 148 1 gusting 5 28.9
2015-Aug-02 12:30 124 1 gusting 6 28.3
2015-Aug-02 12:15 104 1 gusting 6 28.9
2015-Aug-02 12:00 140 1 gusting 5 28.9
2015-Aug-02 11:45 204 0 gusting 5 28.3
2015-Aug-02 11:30 224 1 gusting 5 28.3
2015-Aug-02 11:15 134 2 gusting 5 28.9
2015-Aug-02 11:00 121 1 gusting 6 28.3